createdAt,value
2017-08-10T00:01:10.752Z,16.60
2017-08-10T00:03:38.296Z,16.80
2017-08-10T00:06:09.135Z,16.70
2017-08-10T00:08:36.668Z,16.70
2017-08-10T00:11:04.233Z,16.70
2017-08-10T00:13:31.727Z,16.70
2017-08-10T00:15:59.275Z,16.70
2017-08-10T00:18:26.811Z,16.70
2017-08-10T00:20:58.182Z,16.60
2017-08-10T00:23:25.729Z,16.60
2017-08-10T00:25:53.246Z,16.50
2017-08-10T00:28:20.882Z,15.90
2017-08-10T00:30:48.405Z,15.60
2017-08-10T00:33:16.066Z,15.50
2017-08-10T00:35:43.640Z,15.40
2017-08-10T00:38:11.211Z,15.40
2017-08-10T00:40:38.818Z,15.30
2017-08-10T00:43:07.492Z,15.30
2017-08-10T00:45:35.803Z,15.30
2017-08-10T00:48:03.311Z,15.30
2017-08-10T00:50:30.835Z,15.30
2017-08-10T00:52:58.620Z,15.20
2017-08-10T00:55:26.256Z,15.20
2017-08-10T00:57:53.809Z,15.20
2017-08-10T01:00:21.415Z,15.10
2017-08-10T01:02:48.935Z,15.10
2017-08-10T01:05:16.441Z,15.20
2017-08-10T01:07:43.999Z,15.20
2017-08-10T01:10:11.576Z,15.20
2017-08-10T01:12:39.385Z,15.10
2017-08-10T01:15:07.456Z,15.10
2017-08-10T01:17:34.954Z,15.20
2017-08-10T01:20:02.574Z,15.20
2017-08-10T01:22:33.821Z,15.20
2017-08-10T01:25:01.314Z,15.20
2017-08-10T01:27:29.036Z,15.20
2017-08-10T01:29:56.795Z,15.30
2017-08-10T01:32:25.243Z,15.30
2017-08-10T01:34:53.572Z,15.30
2017-08-10T01:37:21.121Z,15.30
2017-08-10T01:39:48.732Z,15.30
2017-08-10T01:42:16.548Z,15.40
2017-08-10T01:44:44.089Z,15.40
2017-08-10T01:47:11.717Z,15.40
2017-08-10T01:49:39.219Z,15.40
2017-08-10T01:52:06.724Z,15.40
2017-08-10T01:54:38.428Z,15.50
2017-08-10T01:57:05.931Z,15.50
2017-08-10T01:59:33.434Z,15.60
2017-08-10T02:02:01.335Z,15.60
2017-08-10T02:04:28.844Z,15.60
2017-08-10T02:06:56.391Z,15.50
2017-08-10T02:09:25.024Z,15.70
2017-08-10T02:11:52.839Z,15.70
2017-08-10T02:14:21.167Z,15.60
2017-08-10T02:16:48.667Z,15.60
2017-08-10T02:19:16.408Z,15.60
2017-08-10T02:21:52.159Z,15.60
2017-08-10T02:24:19.668Z,15.50
2017-08-10T02:26:47.607Z,15.50
2017-08-10T02:29:15.136Z,15.50
2017-08-10T02:31:42.898Z,15.50
2017-08-10T02:34:10.636Z,15.40
2017-08-10T02:36:38.156Z,15.40
2017-08-10T02:39:05.877Z,15.30
2017-08-10T02:41:33.436Z,15.30
2017-08-10T02:44:01.269Z,15.20
2017-08-10T02:46:28.860Z,15.20
2017-08-10T02:48:56.387Z,15.20
2017-08-10T02:51:23.961Z,15.30
2017-08-10T02:53:51.459Z,15.20
2017-08-10T02:56:19.012Z,15.10
2017-08-10T02:58:46.527Z,15.00
2017-08-10T03:01:14.036Z,14.90
2017-08-10T03:03:41.570Z,14.90
2017-08-10T03:06:09.071Z,14.80
2017-08-10T03:08:36.635Z,14.80
2017-08-10T03:11:04.140Z,14.80
2017-08-10T03:13:31.810Z,14.80
2017-08-10T03:15:59.327Z,14.90
2017-08-10T03:18:27.603Z,14.90
2017-08-10T03:20:55.175Z,14.90
2017-08-10T03:23:22.680Z,14.90
2017-08-10T03:25:50.253Z,14.90
2017-08-10T03:28:17.769Z,14.90
2017-08-10T03:30:45.300Z,15.00
2017-08-10T03:33:13.937Z,15.20
2017-08-10T03:35:41.447Z,15.10
2017-08-10T03:38:09.744Z,15.10
2017-08-10T03:40:37.518Z,15.00
2017-08-10T03:43:05.023Z,15.10
2017-08-10T03:45:32.685Z,15.20
2017-08-10T03:48:00.239Z,15.20
2017-08-10T03:50:30.726Z,15.20
2017-08-10T03:52:58.347Z,15.20
2017-08-10T03:55:25.917Z,15.40
2017-08-10T03:57:53.591Z,15.40
2017-08-10T04:00:21.439Z,15.40
2017-08-10T04:02:49.013Z,15.40
2017-08-10T04:05:16.643Z,15.30
2017-08-10T04:07:44.208Z,15.20
2017-08-10T04:10:12.503Z,15.10
2017-08-10T04:12:40.298Z,15.10
2017-08-10T04:15:07.799Z,15.10
2017-08-10T04:17:35.310Z,15.20
2017-08-10T04:20:02.824Z,15.00
2017-08-10T04:22:37.358Z,15.00
2017-08-10T04:25:04.867Z,15.20
2017-08-10T04:27:32.526Z,15.40
2017-08-10T04:30:00.635Z,15.60
2017-08-10T04:32:28.131Z,15.70
2017-08-10T04:34:59.476Z,15.70
2017-08-10T04:37:27.099Z,15.80
2017-08-10T04:39:54.636Z,15.90
2017-08-10T04:42:22.378Z,15.90
2017-08-10T04:44:49.920Z,16.00
2017-08-10T04:47:17.574Z,16.00
2017-08-10T04:49:45.100Z,16.00
2017-08-10T04:52:12.616Z,15.90
2017-08-10T04:54:40.174Z,15.80
2017-08-10T04:57:07.740Z,15.90
2017-08-10T04:59:35.266Z,16.00
2017-08-10T05:02:02.875Z,16.00
2017-08-10T05:04:30.718Z,16.10
2017-08-10T05:07:02.351Z,16.40
2017-08-10T05:09:29.902Z,16.40
2017-08-10T05:11:57.403Z,16.40
2017-08-10T05:14:25.151Z,16.40
2017-08-10T05:16:53.243Z,16.40
2017-08-10T05:19:20.783Z,16.60
2017-08-10T05:21:51.925Z,16.70
2017-08-10T05:24:19.433Z,16.70
2017-08-10T05:26:46.975Z,16.60
2017-08-10T05:29:14.540Z,16.70
2017-08-10T05:31:42.373Z,16.80
2017-08-10T05:34:10.975Z,16.90
2017-08-10T05:36:43.123Z,16.90
2017-08-10T05:39:10.785Z,17.10
2017-08-10T05:41:38.535Z,17.30
2017-08-10T05:44:06.054Z,17.40
2017-08-10T05:46:33.565Z,17.30
2017-08-10T05:49:01.201Z,17.40
2017-08-10T05:51:28.991Z,17.50
2017-08-10T05:53:56.579Z,17.60
2017-08-10T05:56:24.235Z,17.60
2017-08-10T05:58:51.735Z,17.70
2017-08-10T06:01:20.368Z,17.40
2017-08-10T06:03:47.879Z,17.40
2017-08-10T06:06:15.433Z,17.40
2017-08-10T06:08:47.024Z,17.40
2017-08-10T06:11:14.535Z,17.40
2017-08-10T06:13:43.784Z,17.20
2017-08-10T06:16:11.536Z,17.20
2017-08-10T06:18:39.079Z,17.20
2017-08-10T06:21:06.578Z,17.20
2017-08-10T06:23:34.132Z,17.20
2017-08-10T06:26:01.654Z,17.10
2017-08-10T06:28:29.221Z,17.20
2017-08-10T06:30:56.900Z,17.30
2017-08-10T06:33:24.915Z,17.40
2017-08-10T06:35:52.420Z,17.60
2017-08-10T06:38:19.928Z,17.70
2017-08-10T06:40:49.166Z,17.60
2017-08-10T06:43:16.667Z,17.60
2017-08-10T06:45:44.407Z,17.50
2017-08-10T06:48:11.972Z,17.60
2017-08-10T06:50:39.476Z,17.60
2017-08-10T06:53:06.983Z,17.50
2017-08-10T06:55:34.652Z,17.50
2017-08-10T06:58:02.584Z,17.70
2017-08-10T07:00:30.367Z,17.70
2017-08-10T07:02:57.905Z,17.70
2017-08-10T07:05:26.185Z,17.80
2017-08-10T07:07:54.325Z,17.80
2017-08-10T07:10:23.900Z,17.80
2017-08-10T07:12:51.903Z,18.00
2017-08-10T07:15:19.720Z,17.80
2017-08-10T07:17:47.231Z,17.40
2017-08-10T07:20:14.741Z,17.30
2017-08-10T07:22:42.680Z,17.30
2017-08-10T07:25:10.183Z,17.40
2017-08-10T07:27:37.680Z,17.50
2017-08-10T07:30:05.369Z,17.50
2017-08-10T07:32:32.868Z,17.50
2017-08-10T07:35:00.377Z,17.80
2017-08-10T07:37:27.900Z,18.20
2017-08-10T07:39:55.481Z,18.20
2017-08-10T07:42:22.991Z,18.30
2017-08-10T07:44:50.664Z,18.60
2017-08-10T07:47:18.223Z,18.60
2017-08-10T07:49:45.730Z,18.50
2017-08-10T07:52:14.029Z,18.20
2017-08-10T07:54:45.932Z,18.20
2017-08-10T07:57:13.977Z,18.10
2017-08-10T07:59:41.584Z,18.40
2017-08-10T08:02:09.090Z,18.70
2017-08-10T08:04:36.804Z,18.90
2017-08-10T08:07:04.328Z,18.60
2017-08-10T08:09:31.851Z,18.40
2017-08-10T08:11:59.532Z,18.40
2017-08-10T08:14:27.299Z,18.40
2017-08-10T08:16:54.856Z,18.30
2017-08-10T08:19:22.523Z,18.30
2017-08-10T08:21:50.026Z,18.30
2017-08-10T08:24:20.805Z,18.20
2017-08-10T08:26:48.306Z,18.20
2017-08-10T08:29:16.665Z,18.40
2017-08-10T08:31:44.228Z,18.40
2017-08-10T08:34:12.088Z,18.70
2017-08-10T08:36:39.635Z,18.70
2017-08-10T08:39:14.451Z,19.00
2017-08-10T08:41:42.008Z,19.10
2017-08-10T08:44:09.546Z,19.20
2017-08-10T08:46:37.055Z,19.50
2017-08-10T08:49:04.572Z,19.50
2017-08-10T08:51:32.347Z,19.60
2017-08-10T08:54:00.126Z,19.40
2017-08-10T08:56:28.800Z,19.00
2017-08-10T08:58:56.313Z,18.90
2017-08-10T09:01:23.978Z,18.90
2017-08-10T09:03:51.566Z,18.80
2017-08-10T09:06:19.077Z,18.60
2017-08-10T09:08:46.721Z,18.50
2017-08-10T09:11:14.239Z,18.50
2017-08-10T09:13:42.190Z,18.60
2017-08-10T09:16:09.702Z,18.70
2017-08-10T09:18:37.207Z,18.90
2017-08-10T09:21:05.504Z,19.00
2017-08-10T09:23:33.020Z,19.00
2017-08-10T09:26:06.212Z,19.20
2017-08-10T09:28:33.723Z,19.20
2017-08-10T09:31:01.475Z,19.10
2017-08-10T09:33:29.271Z,19.30
2017-08-10T09:35:57.284Z,19.00
2017-08-10T09:38:24.811Z,18.70
2017-08-10T09:40:56.249Z,18.70
2017-08-10T09:43:23.938Z,18.80
2017-08-10T09:45:51.474Z,18.90
2017-08-10T09:48:20.068Z,19.00
2017-08-10T09:50:47.718Z,18.90
2017-08-10T09:53:15.295Z,19.10
2017-08-10T09:55:42.844Z,19.20
2017-08-10T09:58:10.361Z,19.20
2017-08-10T10:00:37.869Z,19.30
2017-08-10T10:03:05.508Z,18.90
2017-08-10T10:05:33.022Z,18.70
2017-08-10T10:08:01.299Z,18.50
2017-08-10T10:10:28.810Z,18.60
2017-08-10T10:12:56.329Z,18.60
2017-08-10T10:15:24.612Z,18.70
2017-08-10T10:17:52.115Z,18.70
2017-08-10T10:20:19.623Z,18.70
2017-08-10T10:22:48.135Z,18.70
2017-08-10T10:25:15.695Z,18.70
2017-08-10T10:27:43.204Z,18.70
2017-08-10T10:30:13.483Z,18.70
2017-08-10T10:32:41.019Z,18.90
2017-08-10T10:35:08.536Z,19.00
2017-08-10T10:37:36.091Z,19.00
2017-08-10T10:40:03.627Z,18.80
2017-08-10T10:42:35.879Z,18.70
2017-08-10T10:45:03.392Z,18.90
2017-08-10T10:47:31.705Z,19.20
2017-08-10T10:49:59.290Z,19.10
2017-08-10T10:52:27.142Z,19.30
2017-08-10T10:54:54.675Z,19.40
2017-08-10T10:57:26.667Z,19.30
2017-08-10T10:59:54.202Z,19.40
2017-08-10T11:02:21.831Z,19.60
2017-08-10T11:04:49.396Z,19.80
2017-08-10T11:07:16.935Z,19.60
2017-08-10T11:09:44.570Z,19.50
2017-08-10T11:12:12.075Z,19.50
2017-08-10T11:14:39.623Z,19.50
2017-08-10T11:17:07.179Z,19.50
2017-08-10T11:19:34.708Z,19.60
2017-08-10T11:22:02.257Z,19.70
2017-08-10T11:24:29.772Z,19.70
2017-08-10T11:26:58.116Z,19.50
2017-08-10T11:29:25.665Z,19.50
2017-08-10T11:31:53.192Z,19.70
2017-08-10T11:34:20.810Z,19.80
2017-08-10T11:36:48.521Z,19.90
2017-08-10T11:39:16.100Z,20.10
2017-08-10T11:41:43.620Z,20.10
2017-08-10T11:44:11.135Z,20.20
2017-08-10T11:46:38.691Z,20.20
2017-08-10T11:49:06.220Z,20.20
2017-08-10T11:51:34.009Z,20.00
2017-08-10T11:54:01.628Z,19.90
2017-08-10T11:56:29.920Z,19.70
2017-08-10T11:59:01.224Z,19.60
2017-08-10T12:01:28.737Z,19.90
2017-08-10T12:03:56.710Z,20.30
2017-08-10T12:06:24.282Z,20.70
2017-08-10T12:08:51.811Z,20.90
2017-08-10T12:11:19.371Z,20.80
2017-08-10T12:13:50.873Z,21.00
2017-08-10T12:16:18.416Z,21.00
2017-08-10T12:18:45.976Z,21.20
2017-08-10T12:21:13.559Z,21.20
2017-08-10T12:23:41.111Z,21.40
2017-08-10T12:26:08.728Z,21.30
2017-08-10T12:28:43.568Z,21.20
2017-08-10T12:31:11.599Z,21.20
2017-08-10T12:33:39.188Z,21.00
2017-08-10T12:36:07.179Z,21.10
2017-08-10T12:38:35.345Z,21.20
2017-08-10T12:41:02.860Z,21.10
2017-08-10T12:43:32.924Z,21.20
2017-08-10T12:46:00.563Z,20.80
2017-08-10T12:48:28.088Z,20.60
2017-08-10T12:50:55.664Z,20.40
2017-08-10T12:53:23.204Z,20.70
2017-08-10T12:55:50.813Z,20.80
2017-08-10T12:58:18.336Z,20.90
2017-08-10T13:00:45.855Z,21.00
2017-08-10T13:03:13.411Z,21.00
2017-08-10T13:05:40.920Z,20.60
2017-08-10T13:08:08.623Z,20.60
2017-08-10T13:10:36.201Z,20.20
2017-08-10T13:13:03.735Z,20.20
2017-08-10T13:15:31.310Z,20.00
2017-08-10T13:17:58.854Z,20.10
2017-08-10T13:20:26.926Z,20.30
2017-08-10T13:22:54.483Z,20.50
2017-08-10T13:25:21.994Z,20.50
2017-08-10T13:27:49.544Z,20.70
2017-08-10T13:30:17.064Z,20.90
2017-08-10T13:32:44.842Z,20.80
2017-08-10T13:35:12.355Z,20.80
2017-08-10T13:37:40.040Z,20.90
2017-08-10T13:40:07.642Z,20.90
2017-08-10T13:42:36.176Z,20.80
2017-08-10T13:45:07.637Z,20.50
2017-08-10T13:47:35.298Z,20.30
2017-08-10T13:50:03.104Z,20.30
2017-08-10T13:52:30.622Z,20.20
2017-08-10T13:54:58.130Z,19.90
2017-08-10T13:57:26.412Z,20.00
2017-08-10T13:59:53.941Z,20.00
2017-08-10T14:02:21.942Z,19.90
2017-08-10T14:04:49.511Z,19.80
2017-08-10T14:07:17.208Z,20.00
2017-08-10T14:09:44.971Z,20.10
2017-08-10T14:12:12.737Z,20.10
2017-08-10T14:14:41.012Z,19.90
2017-08-10T14:17:08.568Z,19.90
2017-08-10T14:19:36.323Z,19.80
2017-08-10T14:22:04.354Z,19.70
2017-08-10T14:24:32.164Z,19.50
2017-08-10T14:27:00.041Z,19.70
2017-08-10T14:29:27.972Z,19.80
2017-08-10T14:31:55.476Z,19.90
2017-08-10T14:34:23.029Z,19.90
2017-08-10T14:36:50.686Z,19.80
2017-08-10T14:39:18.244Z,19.80
2017-08-10T14:41:45.752Z,19.70
2017-08-10T14:44:13.616Z,19.60
2017-08-10T14:46:43.915Z,19.60
2017-08-10T14:49:11.435Z,19.40
2017-08-10T14:51:39.159Z,19.20
2017-08-10T14:54:07.189Z,19.30
2017-08-10T14:56:34.952Z,19.20
2017-08-10T14:59:02.708Z,19.00
2017-08-10T15:01:30.219Z,19.00
2017-08-10T15:03:58.021Z,19.00
2017-08-10T15:06:25.540Z,18.90
2017-08-10T15:08:53.451Z,18.90
2017-08-10T15:11:21.260Z,18.80
2017-08-10T15:13:48.783Z,18.70
2017-08-10T15:16:16.359Z,18.60
2017-08-10T15:18:43.887Z,18.80
2017-08-10T15:21:11.947Z,18.90
2017-08-10T15:23:39.726Z,18.90
2017-08-10T15:26:07.503Z,18.90
2017-08-10T15:28:35.008Z,18.90
2017-08-10T15:31:04.564Z,18.80
2017-08-10T15:33:32.115Z,18.70
2017-08-10T15:35:59.620Z,18.70
2017-08-10T15:38:27.495Z,18.70
2017-08-10T15:40:55.052Z,18.60
2017-08-10T15:43:22.640Z,18.40
2017-08-10T15:45:50.148Z,18.30
2017-08-10T15:48:17.705Z,18.10
2017-08-10T15:50:45.262Z,18.00
2017-08-10T15:53:12.775Z,17.70
2017-08-10T15:55:40.289Z,17.60
2017-08-10T15:58:07.871Z,17.60
2017-08-10T16:00:35.916Z,17.70
2017-08-10T16:03:03.476Z,17.60
2017-08-10T16:05:31.115Z,17.50
2017-08-10T16:07:58.614Z,17.50
2017-08-10T16:10:26.148Z,17.50
2017-08-10T16:12:53.652Z,17.50
2017-08-10T16:15:21.223Z,17.50
2017-08-10T16:17:48.728Z,17.50
2017-08-10T16:20:16.235Z,17.50
2017-08-10T16:22:43.949Z,17.40
2017-08-10T16:25:11.490Z,17.40
2017-08-10T16:27:39.115Z,17.30
2017-08-10T16:30:06.631Z,17.20
2017-08-10T16:32:38.673Z,17.10
2017-08-10T16:35:06.187Z,17.00
2017-08-10T16:37:34.476Z,16.90
2017-08-10T16:40:02.212Z,16.90
2017-08-10T16:42:29.842Z,16.90
2017-08-10T16:44:57.358Z,16.70
2017-08-10T16:47:28.331Z,16.60
2017-08-10T16:49:55.832Z,16.60
2017-08-10T16:52:23.371Z,16.40
2017-08-10T16:54:50.876Z,16.30
2017-08-10T16:57:18.422Z,16.10
2017-08-10T16:59:46.135Z,15.90
2017-08-10T17:02:13.646Z,15.80
2017-08-10T17:04:41.160Z,15.50
2017-08-10T17:07:08.658Z,15.40
2017-08-10T17:09:36.209Z,15.30
2017-08-10T17:12:03.744Z,15.30
2017-08-10T17:14:31.287Z,15.40
2017-08-10T17:16:58.778Z,15.40
2017-08-10T17:19:26.332Z,15.40
2017-08-10T17:21:53.830Z,15.50
2017-08-10T17:24:21.518Z,15.40
2017-08-10T17:26:49.099Z,15.30
2017-08-10T17:29:16.632Z,15.30
2017-08-10T17:31:44.152Z,15.40
2017-08-10T17:34:12.428Z,15.40
2017-08-10T17:36:39.980Z,15.30
2017-08-10T17:39:08.252Z,15.40
2017-08-10T17:41:35.757Z,15.40
2017-08-10T17:44:03.260Z,15.50
2017-08-10T17:46:30.758Z,15.60
2017-08-10T17:48:58.272Z,15.60
2017-08-10T17:51:26.131Z,15.60
2017-08-10T17:53:53.627Z,15.60
2017-08-10T17:56:21.135Z,15.60
2017-08-10T17:58:48.634Z,15.60
2017-08-10T18:01:16.919Z,15.40
2017-08-10T18:03:44.447Z,15.40
2017-08-10T18:06:11.973Z,15.30
2017-08-10T18:08:39.739Z,15.30
2017-08-10T18:11:07.344Z,15.20
2017-08-10T18:13:35.204Z,15.10
2017-08-10T18:16:02.719Z,15.10
2017-08-10T18:18:33.149Z,15.00
2017-08-10T18:21:00.721Z,15.00
2017-08-10T18:23:28.214Z,14.90
2017-08-10T18:25:55.747Z,15.10
2017-08-10T18:28:23.251Z,15.10
2017-08-10T18:30:50.820Z,15.10
2017-08-10T18:33:18.416Z,15.10
2017-08-10T18:35:46.067Z,15.20
2017-08-10T18:38:13.631Z,15.10
2017-08-10T18:40:43.275Z,15.10
2017-08-10T18:43:10.815Z,15.20
2017-08-10T18:45:38.807Z,15.40
2017-08-10T18:48:06.315Z,15.40
2017-08-10T18:50:33.831Z,15.40
2017-08-10T18:53:04.363Z,15.40
2017-08-10T18:55:32.668Z,15.60
2017-08-10T18:58:00.194Z,15.50
2017-08-10T19:00:28.483Z,15.40
2017-08-10T19:02:55.983Z,15.40
2017-08-10T19:05:23.486Z,15.40
2017-08-10T19:07:51.446Z,15.60
2017-08-10T19:10:19.015Z,15.50
2017-08-10T19:12:47.307Z,15.50
2017-08-10T19:15:14.839Z,15.50
2017-08-10T19:17:42.835Z,15.30
2017-08-10T19:20:10.368Z,15.30
2017-08-10T19:22:37.879Z,15.30
2017-08-10T19:25:05.415Z,15.40
2017-08-10T19:27:33.055Z,15.30
2017-08-10T19:30:01.732Z,15.20
2017-08-10T19:32:29.262Z,15.20
2017-08-10T19:34:56.919Z,15.10
2017-08-10T19:37:28.360Z,15.10
2017-08-10T19:39:56.372Z,15.00
2017-08-10T19:42:23.933Z,15.00
2017-08-10T19:44:51.790Z,15.00
2017-08-10T19:47:19.500Z,15.00
2017-08-10T19:49:47.072Z,15.00
2017-08-10T19:52:19.247Z,15.10
2017-08-10T19:54:47.739Z,15.20
2017-08-10T19:57:15.244Z,15.20
2017-08-10T19:59:42.808Z,15.00
2017-08-10T20:02:10.329Z,15.00
2017-08-10T20:04:37.913Z,15.10
2017-08-10T20:07:05.506Z,15.10
2017-08-10T20:09:33.040Z,15.10
2017-08-10T20:12:05.371Z,15.10
2017-08-10T20:14:32.928Z,15.00
2017-08-10T20:17:00.596Z,15.10
2017-08-10T20:19:28.136Z,15.10
2017-08-10T20:21:58.627Z,15.20
2017-08-10T20:24:26.888Z,15.00
2017-08-10T20:26:55.315Z,15.00
2017-08-10T20:29:22.815Z,15.00
2017-08-10T20:31:50.415Z,15.10
2017-08-10T20:34:17.950Z,15.00
2017-08-10T20:36:45.497Z,15.00
2017-08-10T20:39:17.525Z,15.10
2017-08-10T20:41:45.079Z,15.10
2017-08-10T20:44:13.557Z,15.10
2017-08-10T20:46:41.081Z,15.10
2017-08-10T20:49:08.596Z,15.10
2017-08-10T20:51:40.100Z,15.10
2017-08-10T20:54:08.368Z,15.10
2017-08-10T20:56:35.907Z,15.10
2017-08-10T20:59:03.399Z,15.20
2017-08-10T21:01:30.914Z,15.20
2017-08-10T21:03:58.443Z,15.20
2017-08-10T21:06:30.000Z,15.30
2017-08-10T21:08:58.603Z,15.20
2017-08-10T21:11:26.120Z,15.20
2017-08-10T21:13:53.618Z,15.20
2017-08-10T21:16:21.155Z,15.20
2017-08-10T21:18:49.559Z,15.20
2017-08-10T21:21:17.440Z,15.20
2017-08-10T21:23:48.627Z,15.20
2017-08-10T21:26:16.167Z,15.30
2017-08-10T21:28:44.459Z,15.60
2017-08-10T21:31:11.963Z,15.60
2017-08-10T21:33:39.522Z,15.70
2017-08-10T21:36:07.153Z,15.80
2017-08-10T21:38:39.326Z,15.70
2017-08-10T21:41:07.230Z,15.60
2017-08-10T21:43:34.830Z,15.50
2017-08-10T21:46:02.590Z,15.30
2017-08-10T21:48:30.107Z,15.30
2017-08-10T21:50:57.762Z,15.30
2017-08-10T21:53:29.798Z,15.40
2017-08-10T21:55:57.319Z,15.40
2017-08-10T21:58:25.648Z,15.20
2017-08-10T22:00:53.395Z,15.20
2017-08-10T22:03:20.937Z,15.20
2017-08-10T22:05:48.444Z,15.20
2017-08-10T22:08:19.765Z,15.30
2017-08-10T22:10:47.303Z,15.20
2017-08-10T22:13:14.824Z,15.40
2017-08-10T22:15:42.380Z,15.20
2017-08-10T22:18:09.896Z,15.10
2017-08-10T22:20:37.658Z,15.20
2017-08-10T22:23:08.765Z,15.20
2017-08-10T22:25:37.422Z,15.30
2017-08-10T22:28:04.931Z,15.30
2017-08-10T22:30:32.441Z,15.20
2017-08-10T22:33:00.268Z,15.30
2017-08-10T22:35:27.796Z,15.30
2017-08-10T22:37:55.307Z,15.30
2017-08-10T22:40:26.634Z,15.20
2017-08-10T22:42:55.051Z,15.10
2017-08-10T22:45:22.964Z,15.00
2017-08-10T22:47:50.476Z,15.00
2017-08-10T22:50:18.034Z,15.00
2017-08-10T22:52:45.536Z,14.90
2017-08-10T22:55:13.087Z,14.90
2017-08-10T22:57:40.639Z,15.10
2017-08-10T23:00:09.361Z,15.10
2017-08-10T23:02:36.870Z,15.10
2017-08-10T23:05:04.389Z,15.20
2017-08-10T23:07:31.903Z,15.30
2017-08-10T23:09:59.703Z,15.30
2017-08-10T23:12:27.212Z,15.20
2017-08-10T23:14:56.088Z,15.10
2017-08-10T23:17:23.607Z,15.10
2017-08-10T23:19:51.371Z,15.10
2017-08-10T23:22:19.076Z,15.00
2017-08-10T23:24:46.635Z,15.00
2017-08-10T23:27:14.153Z,15.00
2017-08-10T23:29:42.120Z,14.90
2017-08-10T23:32:09.639Z,14.80
2017-08-10T23:34:37.153Z,14.80
2017-08-10T23:37:05.667Z,14.80
2017-08-10T23:39:35.656Z,14.80
2017-08-10T23:42:03.197Z,14.90
2017-08-10T23:44:30.704Z,15.00
2017-08-10T23:46:58.848Z,15.10
2017-08-10T23:49:26.692Z,15.10
2017-08-10T23:51:54.265Z,15.10
2017-08-10T23:54:25.308Z,15.10
2017-08-10T23:56:52.845Z,15.20
2017-08-10T23:59:20.349Z,15.10
